createdAt,value
2016-10-02T00:00:37.750Z,0
2016-10-02T00:01:37.727Z,0
2016-10-02T00:02:38.025Z,0
2016-10-02T00:03:37.752Z,0
2016-10-02T00:04:38.005Z,0
2016-10-02T00:05:38.006Z,0
2016-10-02T00:06:37.996Z,0
2016-10-02T00:07:37.700Z,0
2016-10-02T00:08:37.662Z,0
2016-10-02T00:09:37.937Z,0
2016-10-02T00:10:37.924Z,0
2016-10-02T00:11:37.590Z,0
2016-10-02T00:12:37.598Z,0
2016-10-02T00:13:37.613Z,0
2016-10-02T00:14:37.563Z,0
2016-10-02T00:15:37.863Z,0
2016-10-02T00:16:37.533Z,0
2016-10-02T00:17:37.519Z,0
2016-10-02T00:18:37.557Z,0
2016-10-02T00:19:37.495Z,0
2016-10-02T00:20:37.790Z,0
2016-10-02T00:21:37.465Z,0
2016-10-02T00:22:37.763Z,0
2016-10-02T00:23:38.069Z,0
2016-10-02T00:24:37.428Z,0
2016-10-02T00:25:37.749Z,0
2016-10-02T00:26:37.744Z,0
2016-10-02T00:27:37.722Z,0
2016-10-02T00:28:37.414Z,0
2016-10-02T00:29:37.366Z,0
2016-10-02T00:30:37.367Z,0
2016-10-02T00:31:37.337Z,0
2016-10-02T00:32:37.324Z,0
2016-10-02T00:33:37.617Z,0
2016-10-02T00:34:37.296Z,0
2016-10-02T00:35:37.286Z,0
2016-10-02T00:36:37.273Z,0
2016-10-02T00:37:37.270Z,0
2016-10-02T00:38:37.237Z,0
2016-10-02T00:39:37.544Z,0
2016-10-02T00:40:37.216Z,0
2016-10-02T00:41:37.201Z,0
2016-10-02T00:42:37.184Z,0
2016-10-02T00:43:37.187Z,0
2016-10-02T00:44:37.177Z,0
2016-10-02T00:45:37.781Z,0
2016-10-02T00:46:37.466Z,0
2016-10-02T00:47:37.447Z,0
2016-10-02T00:48:37.747Z,0
2016-10-02T00:49:37.104Z,0
2016-10-02T00:50:37.086Z,0
2016-10-02T00:51:37.062Z,0
2016-10-02T00:52:37.380Z,0
2016-10-02T00:53:37.258Z,0
2016-10-02T00:54:37.355Z,0
2016-10-02T00:55:37.101Z,0
2016-10-02T00:56:37.006Z,0
2016-10-02T00:57:36.991Z,0
2016-10-02T00:58:36.980Z,0
2016-10-02T00:59:36.963Z,0
2016-10-02T01:00:36.950Z,0
2016-10-02T01:01:36.946Z,0
2016-10-02T01:02:37.234Z,0
2016-10-02T01:03:36.922Z,0
2016-10-02T01:04:36.994Z,0
2016-10-02T01:05:37.200Z,0
2016-10-02T01:06:37.197Z,0
2016-10-02T01:07:37.176Z,0
2016-10-02T01:08:37.158Z,0
2016-10-02T01:09:36.836Z,0
2016-10-02T01:10:37.137Z,0
2016-10-02T01:11:36.808Z,0
2016-10-02T01:12:37.115Z,0
2016-10-02T01:13:36.782Z,0
2016-10-02T01:14:36.772Z,0
2016-10-02T01:15:36.755Z,0
2016-10-02T01:16:37.058Z,0
2016-10-02T01:17:36.727Z,0
2016-10-02T01:18:36.722Z,0
2016-10-02T01:19:37.018Z,0
2016-10-02T01:20:36.695Z,0
2016-10-02T01:21:37.005Z,0
2016-10-02T01:22:36.975Z,0
2016-10-02T01:23:37.285Z,0
2016-10-02T01:24:36.663Z,0
2016-10-02T01:25:37.259Z,0
2016-10-02T01:26:36.931Z,0
2016-10-02T01:27:36.600Z,0
2016-10-02T01:28:36.584Z,0
2016-10-02T01:29:36.573Z,0
2016-10-02T01:30:36.560Z,0
2016-10-02T01:31:36.549Z,0
2016-10-02T01:32:36.848Z,0
2016-10-02T01:33:36.828Z,0
2016-10-02T01:34:36.507Z,0
2016-10-02T01:35:36.489Z,0
2016-10-02T01:36:37.109Z,0
2016-10-02T01:37:36.781Z,0
2016-10-02T01:38:36.769Z,0
2016-10-02T01:39:36.440Z,0
2016-10-02T01:40:36.744Z,0
2016-10-02T01:41:36.433Z,0
2016-10-02T01:42:36.400Z,0
2016-10-02T01:43:36.390Z,0
2016-10-02T01:44:36.376Z,0
2016-10-02T01:45:36.372Z,0
2016-10-02T01:46:36.669Z,0
2016-10-02T01:47:36.335Z,0
2016-10-02T01:48:36.317Z,0
2016-10-02T01:49:36.312Z,0
2016-10-02T01:50:36.607Z,0
2016-10-02T01:51:36.294Z,0
2016-10-02T01:52:36.610Z,0
2016-10-02T01:53:36.264Z,0
2016-10-02T01:54:36.562Z,0
2016-10-02T01:55:36.225Z,0
2016-10-02T01:56:36.536Z,0
2016-10-02T01:57:36.509Z,0
2016-10-02T01:58:36.191Z,0
2016-10-02T01:59:36.490Z,0
2016-10-02T02:00:36.165Z,0
2016-10-02T02:01:36.780Z,0
2016-10-02T02:02:36.134Z,0
2016-10-02T02:03:36.126Z,0
2016-10-02T02:04:36.104Z,0
2016-10-02T02:05:36.095Z,0
2016-10-02T02:06:36.428Z,0
2016-10-02T02:07:36.081Z,0
2016-10-02T02:08:36.060Z,0
2016-10-02T02:09:36.040Z,0
2016-10-02T02:10:36.354Z,0
2016-10-02T02:11:36.019Z,0
2016-10-02T02:12:36.018Z,0
2016-10-02T02:13:36.297Z,0
2016-10-02T02:14:36.623Z,0
2016-10-02T02:15:36.292Z,0
2016-10-02T02:16:36.264Z,0
2016-10-02T02:17:35.938Z,0
2016-10-02T02:18:35.930Z,0
2016-10-02T02:19:36.224Z,0
2016-10-02T02:20:35.891Z,0
2016-10-02T02:21:36.222Z,0
2016-10-02T02:22:35.866Z,0
2016-10-02T02:23:35.862Z,0
2016-10-02T02:24:35.861Z,0
2016-10-02T02:25:35.832Z,0
2016-10-02T02:26:35.825Z,0
2016-10-02T02:27:35.809Z,0
2016-10-02T02:28:35.789Z,0
2016-10-02T02:29:36.408Z,0
2016-10-02T02:30:36.101Z,0
2016-10-02T02:31:35.744Z,0
2016-10-02T02:32:35.765Z,0
2016-10-02T02:33:35.719Z,0
2016-10-02T02:34:35.708Z,0
2016-10-02T02:35:35.708Z,0
2016-10-02T02:36:35.711Z,0
2016-10-02T02:37:35.987Z,0
2016-10-02T02:38:35.656Z,0
2016-10-02T02:39:35.649Z,0
2016-10-02T02:40:35.626Z,0
2016-10-02T02:41:35.618Z,0
2016-10-02T02:42:35.600Z,0
2016-10-02T02:43:35.601Z,0
2016-10-02T02:44:35.892Z,0
2016-10-02T02:45:35.894Z,0
2016-10-02T02:46:35.867Z,0
2016-10-02T02:47:35.534Z,0
2016-10-02T02:48:35.868Z,0
2016-10-02T02:49:35.507Z,0
2016-10-02T02:50:36.028Z,0
2016-10-02T02:51:35.490Z,0
2016-10-02T02:52:35.471Z,0
2016-10-02T02:53:35.683Z,0
2016-10-02T02:54:35.762Z,0
2016-10-02T02:55:35.431Z,0
2016-10-02T02:56:35.725Z,0
2016-10-02T02:57:35.405Z,0
2016-10-02T02:58:36.053Z,0
2016-10-02T02:59:35.376Z,0
2016-10-02T03:00:35.990Z,0
2016-10-02T03:01:35.356Z,0
2016-10-02T03:02:35.981Z,0
2016-10-02T03:03:35.321Z,0
2016-10-02T03:04:35.328Z,0
2016-10-02T03:05:35.610Z,0
2016-10-02T03:06:35.605Z,0
2016-10-02T03:07:35.266Z,0
2016-10-02T03:08:35.260Z,0
2016-10-02T03:09:35.562Z,0
2016-10-02T03:10:35.857Z,0
2016-10-02T03:11:35.529Z,0
2016-10-02T03:12:35.522Z,0
2016-10-02T03:13:35.189Z,0
2016-10-02T03:14:35.488Z,0
2016-10-02T03:15:35.165Z,0
2016-10-02T03:16:35.462Z,0
2016-10-02T03:17:35.133Z,0
2016-10-02T03:18:35.433Z,0
2016-10-02T03:19:35.431Z,0
2016-10-02T03:20:35.120Z,0
2016-10-02T03:21:35.402Z,0
2016-10-02T03:22:35.072Z,0
2016-10-02T03:23:35.376Z,0
2016-10-02T03:24:35.353Z,0
2016-10-02T03:25:35.346Z,0
2016-10-02T03:26:35.654Z,0
2016-10-02T03:27:35.339Z,0
2016-10-02T03:28:35.312Z,0
2016-10-02T03:29:35.301Z,0
2016-10-02T03:30:35.278Z,0
2016-10-02T03:31:34.947Z,0
2016-10-02T03:32:34.950Z,0
2016-10-02T03:33:34.985Z,0
2016-10-02T03:34:35.555Z,0
2016-10-02T03:35:35.271Z,0
2016-10-02T03:36:35.207Z,0
2016-10-02T03:37:35.530Z,0
2016-10-02T03:38:34.866Z,0
2016-10-02T03:39:35.173Z,0
2016-10-02T03:40:35.495Z,0
2016-10-02T03:41:35.138Z,0
2016-10-02T03:42:34.828Z,0
2016-10-02T03:43:35.118Z,0
2016-10-02T03:44:34.801Z,0
2016-10-02T03:45:34.839Z,0
2016-10-02T03:46:34.751Z,0
2016-10-02T03:47:35.078Z,0
2016-10-02T03:48:35.365Z,0
2016-10-02T03:49:34.706Z,0
2016-10-02T03:50:35.026Z,0
2016-10-02T03:51:34.712Z,0
2016-10-02T03:52:34.666Z,0
2016-10-02T03:53:34.663Z,0
2016-10-02T03:54:34.664Z,0
2016-10-02T03:55:34.633Z,0
2016-10-02T03:56:35.255Z,0
2016-10-02T03:57:34.640Z,0
2016-10-02T03:58:34.595Z,0
2016-10-02T03:59:34.588Z,0
2016-10-02T04:00:34.559Z,0
2016-10-02T04:01:34.542Z,0
2016-10-02T04:02:34.860Z,0
2016-10-02T04:03:34.518Z,0
2016-10-02T04:04:34.819Z,0
2016-10-02T04:05:34.588Z,0
2016-10-02T04:06:35.117Z,0
2016-10-02T04:07:34.466Z,0
2016-10-02T04:08:34.456Z,0
2016-10-02T04:09:34.761Z,0
2016-10-02T04:10:34.756Z,0
2016-10-02T04:11:34.424Z,0
2016-10-02T04:12:34.449Z,0
2016-10-02T04:13:34.693Z,0
2016-10-02T04:14:34.697Z,0
2016-10-02T04:15:34.364Z,0
2016-10-02T04:16:34.972Z,0
2016-10-02T04:17:34.340Z,0
2016-10-02T04:18:34.311Z,0
2016-10-02T04:19:34.298Z,0
2016-10-02T04:20:34.300Z,0
2016-10-02T04:21:34.578Z,0
2016-10-02T04:22:34.277Z,0
2016-10-02T04:23:34.238Z,0
2016-10-02T04:24:34.564Z,0
2016-10-02T04:25:34.216Z,0
2016-10-02T04:26:34.231Z,0
2016-10-02T04:27:34.191Z,0
2016-10-02T04:28:34.178Z,0
2016-10-02T04:29:34.149Z,0
2016-10-02T04:30:34.154Z,0
2016-10-02T04:31:34.140Z,0
2016-10-02T04:32:34.189Z,0
2016-10-02T04:33:34.096Z,0
2016-10-02T04:34:34.082Z,0
2016-10-02T04:35:34.078Z,0
2016-10-02T04:36:34.718Z,0
2016-10-02T04:37:35.049Z,0
2016-10-02T04:38:34.036Z,0
2016-10-02T04:39:34.060Z,0
2016-10-02T04:40:34.029Z,0
2016-10-02T04:41:34.011Z,0
2016-10-02T04:42:34.050Z,0
2016-10-02T04:43:34.280Z,0
2016-10-02T04:44:33.946Z,0
2016-10-02T04:45:33.969Z,0
2016-10-02T04:46:34.247Z,0
2016-10-02T04:47:34.279Z,0
2016-10-02T04:48:34.554Z,0
2016-10-02T04:49:34.231Z,0
2016-10-02T04:50:34.193Z,0
2016-10-02T04:51:34.230Z,0
2016-10-02T04:52:33.898Z,0
2016-10-02T04:53:34.350Z,0
2016-10-02T04:54:34.123Z,0
2016-10-02T04:55:34.144Z,0
2016-10-02T04:56:33.847Z,0
2016-10-02T04:57:33.770Z,0
2016-10-02T04:58:34.069Z,0
2016-10-02T04:59:34.395Z,0
2016-10-02T05:00:34.391Z,0
2016-10-02T05:01:33.735Z,0
2016-10-02T05:02:33.696Z,0
2016-10-02T05:03:33.695Z,0
2016-10-02T05:04:33.669Z,0
2016-10-02T05:05:33.971Z,0
2016-10-02T05:06:33.644Z,0
2016-10-02T05:07:34.252Z,0
2016-10-02T05:08:33.614Z,0
2016-10-02T05:09:33.597Z,0
2016-10-02T05:10:33.590Z,0
2016-10-02T05:11:33.569Z,0
2016-10-02T05:12:33.558Z,0
2016-10-02T05:13:34.174Z,0
2016-10-02T05:14:33.538Z,0
2016-10-02T05:15:33.828Z,0
2016-10-02T05:16:33.508Z,0
2016-10-02T05:17:33.480Z,0
2016-10-02T05:18:33.794Z,0
2016-10-02T05:19:33.771Z,0
2016-10-02T05:20:34.402Z,0
2016-10-02T05:21:33.430Z,0
2016-10-02T05:22:34.048Z,0
2016-10-02T05:23:34.034Z,0
2016-10-02T05:24:33.412Z,0
2016-10-02T05:25:33.371Z,0
2016-10-02T05:26:33.685Z,0
2016-10-02T05:27:33.656Z,0
2016-10-02T05:28:33.348Z,0
2016-10-02T05:29:33.317Z,0
2016-10-02T05:30:33.676Z,0
2016-10-02T05:31:33.298Z,0
2016-10-02T05:32:33.645Z,0
2016-10-02T05:33:33.260Z,0
2016-10-02T05:34:33.578Z,5
2016-10-02T05:35:33.548Z,5
2016-10-02T05:36:33.537Z,5
2016-10-02T05:37:33.212Z,5
2016-10-02T05:38:33.194Z,5
2016-10-02T05:39:33.180Z,5
2016-10-02T05:40:33.495Z,5
2016-10-02T05:41:33.153Z,5
2016-10-02T05:42:33.137Z,5
2016-10-02T05:43:33.445Z,5
2016-10-02T05:44:33.429Z,10
2016-10-02T05:45:33.103Z,10
2016-10-02T05:46:33.097Z,10
2016-10-02T05:47:33.709Z,10
2016-10-02T05:48:33.052Z,10
2016-10-02T05:49:33.044Z,10
2016-10-02T05:50:33.023Z,10
2016-10-02T05:51:33.017Z,10
2016-10-02T05:52:32.995Z,15
2016-10-02T05:53:32.984Z,15
2016-10-02T05:54:32.980Z,15
2016-10-02T05:55:33.607Z,15
2016-10-02T05:56:32.940Z,15
2016-10-02T05:57:32.932Z,15
2016-10-02T05:58:33.233Z,20
2016-10-02T05:59:32.904Z,20
2016-10-02T06:00:33.200Z,20
2016-10-02T06:01:32.878Z,20
2016-10-02T06:02:33.078Z,20
2016-10-02T06:03:32.856Z,20
2016-10-02T06:04:33.152Z,20
2016-10-02T06:05:32.824Z,25
2016-10-02T06:06:32.806Z,25
2016-10-02T06:07:32.792Z,25
2016-10-02T06:08:33.099Z,25
2016-10-02T06:09:33.081Z,25
2016-10-02T06:10:33.068Z,25
2016-10-02T06:11:33.055Z,25
2016-10-02T06:12:32.723Z,30
2016-10-02T06:13:33.024Z,30
2016-10-02T06:14:33.015Z,30
2016-10-02T06:15:33.322Z,30
2016-10-02T06:16:32.989Z,30
2016-10-02T06:17:32.649Z,30
2016-10-02T06:18:32.959Z,30
2016-10-02T06:19:32.937Z,30
2016-10-02T06:20:33.563Z,35
2016-10-02T06:21:32.594Z,35
2016-10-02T06:22:32.904Z,35
2016-10-02T06:23:32.570Z,35
2016-10-02T06:24:32.555Z,35
2016-10-02T06:25:32.862Z,35
2016-10-02T06:26:32.542Z,35
2016-10-02T06:27:32.526Z,35
2016-10-02T06:28:32.503Z,35
2016-10-02T06:29:32.805Z,40
2016-10-02T06:30:32.794Z,40
2016-10-02T06:31:33.095Z,40
2016-10-02T06:32:32.451Z,40
2016-10-02T06:33:32.745Z,40
2016-10-02T06:34:32.728Z,40
2016-10-02T06:35:32.408Z,40
2016-10-02T06:36:32.396Z,40
2016-10-02T06:37:32.383Z,40
2016-10-02T06:38:32.683Z,40
2016-10-02T06:39:32.719Z,45
2016-10-02T06:40:32.341Z,45
2016-10-02T06:41:32.644Z,45
2016-10-02T06:42:32.650Z,45
2016-10-02T06:43:32.299Z,45
2016-10-02T06:44:33.058Z,45
2016-10-02T06:45:32.918Z,45
2016-10-02T06:46:32.608Z,45
2016-10-02T06:47:32.571Z,45
2016-10-02T06:48:32.243Z,45
2016-10-02T06:49:32.426Z,50
2016-10-02T06:50:32.533Z,50
2016-10-02T06:51:32.191Z,50
2016-10-02T06:52:32.509Z,50
2016-10-02T06:53:32.378Z,50
2016-10-02T06:54:32.172Z,50
2016-10-02T06:55:32.470Z,50
2016-10-02T06:56:32.136Z,50
2016-10-02T06:57:32.110Z,50
2016-10-02T06:58:32.102Z,50
2016-10-02T06:59:32.081Z,50
2016-10-02T07:00:32.075Z,55
2016-10-02T07:01:32.745Z,55
2016-10-02T07:02:32.051Z,55
2016-10-02T07:03:32.042Z,55
2016-10-02T07:04:32.024Z,55
2016-10-02T07:05:32.012Z,55
2016-10-02T07:06:32.006Z,55
2016-10-02T07:07:32.302Z,55
2016-10-02T07:08:32.597Z,55
2016-10-02T07:09:32.296Z,55
2016-10-02T07:10:32.255Z,55
2016-10-02T07:11:32.248Z,55
2016-10-02T07:12:32.233Z,55
2016-10-02T07:13:31.907Z,55
2016-10-02T07:14:32.514Z,55
2016-10-02T07:15:32.215Z,60
2016-10-02T07:16:31.869Z,60
2016-10-02T07:17:32.508Z,60
2016-10-02T07:18:31.843Z,60
2016-10-02T07:19:32.151Z,60
2016-10-02T07:20:32.127Z,60
2016-10-02T07:21:32.429Z,60
2016-10-02T07:22:31.777Z,60
2016-10-02T07:23:31.770Z,60
2016-10-02T07:24:31.756Z,60
2016-10-02T07:25:32.062Z,60
2016-10-02T07:26:31.733Z,60
2016-10-02T07:27:31.719Z,60
2016-10-02T07:28:31.700Z,60
2016-10-02T07:29:32.009Z,60
2016-10-02T07:30:31.990Z,65
2016-10-02T07:31:32.297Z,60
2016-10-02T07:32:31.648Z,65
2016-10-02T07:33:31.640Z,65
2016-10-02T07:34:31.625Z,65
2016-10-02T07:35:31.615Z,65
2016-10-02T07:36:31.916Z,65
2016-10-02T07:37:31.604Z,65
2016-10-02T07:38:31.574Z,65
2016-10-02T07:39:31.948Z,65
2016-10-02T07:40:32.502Z,65
2016-10-02T07:41:32.201Z,65
2016-10-02T07:42:31.843Z,70
2016-10-02T07:43:31.836Z,70
2016-10-02T07:44:31.493Z,70
2016-10-02T07:45:31.492Z,70
2016-10-02T07:46:31.789Z,65
2016-10-02T07:47:31.482Z,70
2016-10-02T07:48:31.444Z,70
2016-10-02T07:49:31.446Z,70
2016-10-02T07:50:31.729Z,75
2016-10-02T07:51:31.417Z,75
2016-10-02T07:52:31.392Z,75
2016-10-02T07:53:31.392Z,80
2016-10-02T07:54:31.684Z,85
2016-10-02T07:55:31.681Z,95
2016-10-02T07:56:31.344Z,105
2016-10-02T07:57:31.648Z,115
2016-10-02T07:58:32.271Z,120
2016-10-02T07:59:31.623Z,115
2016-10-02T08:00:31.304Z,110
2016-10-02T08:01:31.283Z,110
2016-10-02T08:02:31.586Z,185
2016-10-02T08:03:31.259Z,270
2016-10-02T08:04:31.249Z,105
2016-10-02T08:05:31.279Z,235
2016-10-02T08:06:31.238Z,110
2016-10-02T08:07:31.205Z,105
2016-10-02T08:08:31.200Z,130
2016-10-02T08:09:31.544Z,160
2016-10-02T08:10:31.177Z,160
2016-10-02T08:11:31.470Z,160
2016-10-02T08:12:31.149Z,165
2016-10-02T08:13:31.141Z,140
2016-10-02T08:14:31.125Z,125
2016-10-02T08:15:31.115Z,140
2016-10-02T08:16:31.733Z,185
2016-10-02T08:17:31.100Z,160
2016-10-02T08:18:31.079Z,175
2016-10-02T08:19:31.067Z,155
2016-10-02T08:20:31.056Z,180
2016-10-02T08:21:31.350Z,190
2016-10-02T08:22:31.044Z,185
2016-10-02T08:23:31.014Z,170
2016-10-02T08:24:31.012Z,155
2016-10-02T08:25:31.064Z,160
2016-10-02T08:26:30.987Z,180
2016-10-02T08:27:31.278Z,160
2016-10-02T08:28:31.310Z,160
2016-10-02T08:29:30.947Z,180
2016-10-02T08:30:30.991Z,175
2016-10-02T08:31:31.244Z,180
2016-10-02T08:32:30.939Z,190
2016-10-02T08:33:30.903Z,195
2016-10-02T08:34:31.211Z,195
2016-10-02T08:35:30.927Z,165
2016-10-02T08:36:30.878Z,135
2016-10-02T08:37:31.169Z,135
2016-10-02T08:38:30.861Z,100
2016-10-02T08:39:31.503Z,90
2016-10-02T08:40:30.881Z,95
2016-10-02T08:41:31.133Z,100
2016-10-02T08:42:30.814Z,105
2016-10-02T08:43:31.125Z,110
2016-10-02T08:44:31.420Z,100
2016-10-02T08:45:31.085Z,85
2016-10-02T08:46:30.760Z,90
2016-10-02T08:47:30.749Z,125
2016-10-02T08:48:30.745Z,120
2016-10-02T08:49:30.719Z,100
2016-10-02T08:50:30.719Z,85
2016-10-02T08:51:31.042Z,70
2016-10-02T08:52:31.037Z,70
2016-10-02T08:53:30.724Z,80
2016-10-02T08:54:30.917Z,90
2016-10-02T08:55:30.701Z,115
2016-10-02T08:56:30.646Z,125
2016-10-02T08:57:30.944Z,110
2016-10-02T08:58:30.936Z,125
2016-10-02T08:59:30.936Z,145
2016-10-02T09:00:30.644Z,160
2016-10-02T09:01:30.895Z,160
2016-10-02T09:02:30.580Z,130
2016-10-02T09:03:30.575Z,120
2016-10-02T09:04:30.862Z,125
2016-10-02T09:05:30.895Z,105
2016-10-02T09:06:30.536Z,90
2016-10-02T09:07:30.514Z,80
2016-10-02T09:08:30.812Z,80
2016-10-02T09:09:30.804Z,80
2016-10-02T09:10:31.109Z,95
2016-10-02T09:11:30.482Z,95
2016-10-02T09:12:30.463Z,85
2016-10-02T09:13:30.751Z,70
2016-10-02T09:14:30.422Z,75
2016-10-02T09:15:30.413Z,85
2016-10-02T09:16:30.437Z,105
2016-10-02T09:17:30.832Z,120
2016-10-02T09:18:30.394Z,105
2016-10-02T09:19:30.373Z,110
2016-10-02T09:20:30.352Z,130
2016-10-02T09:21:30.396Z,200
2016-10-02T09:22:30.646Z,235
2016-10-02T09:23:30.710Z,245
2016-10-02T09:24:30.314Z,230
2016-10-02T09:25:30.925Z,210
2016-10-02T09:26:30.646Z,160
2016-10-02T09:27:30.282Z,160
2016-10-02T09:28:30.258Z,115
2016-10-02T09:29:30.247Z,85
2016-10-02T09:30:30.898Z,105
2016-10-02T09:31:30.284Z,110
2016-10-02T09:32:30.545Z,85
2016-10-02T09:33:30.225Z,80
2016-10-02T09:34:30.183Z,85
2016-10-02T09:35:30.177Z,140
2016-10-02T09:36:30.219Z,100
2016-10-02T09:37:30.469Z,75
2016-10-02T09:38:30.139Z,75
2016-10-02T09:39:30.457Z,75
2016-10-02T09:40:30.108Z,90
2016-10-02T09:41:30.727Z,70
2016-10-02T09:42:30.404Z,120
2016-10-02T09:43:30.402Z,100
2016-10-02T09:44:30.375Z,80
2016-10-02T09:45:30.060Z,110
2016-10-02T09:46:30.039Z,120
2016-10-02T09:47:30.037Z,110
2016-10-02T09:48:30.013Z,125
2016-10-02T09:49:30.341Z,135
2016-10-02T09:50:29.995Z,120
2016-10-02T09:51:30.043Z,180
2016-10-02T09:52:29.981Z,115
2016-10-02T09:53:30.590Z,95
2016-10-02T09:54:29.951Z,115
2016-10-02T09:55:30.621Z,135
2016-10-02T09:56:30.287Z,125
2016-10-02T09:57:30.914Z,100
2016-10-02T09:58:30.222Z,90
2016-10-02T09:59:29.886Z,70
2016-10-02T10:00:29.880Z,75
2016-10-02T10:01:30.882Z,85
2016-10-02T10:02:29.877Z,105
2016-10-02T10:03:29.854Z,100
2016-10-02T10:04:29.833Z,110
2016-10-02T10:05:29.822Z,115
2016-10-02T10:06:29.805Z,105
2016-10-02T10:07:30.332Z,115
2016-10-02T10:08:29.782Z,125
2016-10-02T10:09:29.768Z,155
2016-10-02T10:10:29.763Z,155
2016-10-02T10:11:29.803Z,150
2016-10-02T10:12:30.046Z,135
2016-10-02T10:13:29.713Z,165
2016-10-02T10:14:30.017Z,190
2016-10-02T10:15:29.683Z,165
2016-10-02T10:16:29.742Z,135
2016-10-02T10:17:29.678Z,130
2016-10-02T10:18:29.704Z,115
2016-10-02T10:19:29.644Z,90
2016-10-02T10:20:29.947Z,100
2016-10-02T10:21:29.670Z,145
2016-10-02T10:22:29.927Z,145
2016-10-02T10:23:29.910Z,145
2016-10-02T10:24:29.896Z,140
2016-10-02T10:25:29.573Z,120
2016-10-02T10:26:29.928Z,130
2016-10-02T10:27:29.871Z,135
2016-10-02T10:28:29.534Z,145
2016-10-02T10:29:29.523Z,135
2016-10-02T10:30:29.874Z,135
2016-10-02T10:31:29.493Z,160
2016-10-02T10:32:29.819Z,180
2016-10-02T10:33:29.474Z,195
2016-10-02T10:34:29.778Z,140
2016-10-02T10:35:29.458Z,130
2016-10-02T10:36:29.455Z,145
2016-10-02T10:37:29.429Z,135
2016-10-02T10:38:29.422Z,115
2016-10-02T10:39:30.036Z,120
2016-10-02T10:40:29.398Z,105
2016-10-02T10:41:29.384Z,130
2016-10-02T10:42:29.696Z,165
2016-10-02T10:43:29.767Z,155
2016-10-02T10:44:29.655Z,135
2016-10-02T10:45:29.655Z,120
2016-10-02T10:46:29.335Z,125
2016-10-02T10:47:29.306Z,130
2016-10-02T10:48:29.302Z,115
2016-10-02T10:49:29.918Z,105
2016-10-02T10:50:29.275Z,95
2016-10-02T10:51:30.266Z,105
2016-10-02T10:52:29.256Z,110
2016-10-02T10:53:29.558Z,105
2016-10-02T10:54:29.777Z,95
2016-10-02T10:55:29.219Z,85
2016-10-02T10:56:29.833Z,95
2016-10-02T10:57:29.562Z,85
2016-10-02T10:58:29.185Z,70
2016-10-02T10:59:29.170Z,65
2016-10-02T11:00:29.160Z,65
2016-10-02T11:01:29.148Z,60
2016-10-02T11:02:29.179Z,60
2016-10-02T11:03:29.439Z,65
2016-10-02T11:04:29.108Z,60
2016-10-02T11:05:29.420Z,55
2016-10-02T11:06:29.089Z,50
2016-10-02T11:07:29.135Z,45
2016-10-02T11:08:29.385Z,50
2016-10-02T11:09:29.356Z,55
2016-10-02T11:10:29.049Z,60
2016-10-02T11:11:29.022Z,85
2016-10-02T11:12:29.073Z,90
2016-10-02T11:13:29.020Z,80
2016-10-02T11:14:29.001Z,70
2016-10-02T11:15:28.977Z,60
2016-10-02T11:16:29.628Z,45
2016-10-02T11:17:29.327Z,50
2016-10-02T11:18:29.263Z,50
2016-10-02T11:19:28.925Z,65
2016-10-02T11:20:29.232Z,65
2016-10-02T11:21:28.901Z,70
2016-10-02T11:22:28.910Z,60
2016-10-02T11:23:28.921Z,60
2016-10-02T11:24:29.194Z,55
2016-10-02T11:25:29.158Z,50
2016-10-02T11:26:29.163Z,55
2016-10-02T11:27:28.906Z,60
2016-10-02T11:28:28.825Z,55
2016-10-02T11:29:29.450Z,55
2016-10-02T11:30:29.011Z,65
2016-10-02T11:31:28.798Z,105
2016-10-02T11:32:29.136Z,105
2016-10-02T11:33:28.769Z,105
2016-10-02T11:34:29.387Z,100
2016-10-02T11:35:28.744Z,90
2016-10-02T11:36:28.725Z,85
2016-10-02T11:37:29.092Z,95
2016-10-02T11:38:28.711Z,90
2016-10-02T11:39:29.009Z,115
2016-10-02T11:40:28.682Z,125
2016-10-02T11:41:28.675Z,110
2016-10-02T11:42:29.289Z,90
2016-10-02T11:43:28.977Z,100
2016-10-02T11:44:28.633Z,110
2016-10-02T11:45:28.622Z,100
2016-10-02T11:46:28.927Z,105
2016-10-02T11:47:28.651Z,120
2016-10-02T11:48:28.586Z,135
2016-10-02T11:49:28.575Z,135
2016-10-02T11:50:28.567Z,145
2016-10-02T11:51:28.552Z,165
2016-10-02T11:52:28.912Z,195
2016-10-02T11:53:28.855Z,250
2016-10-02T11:54:28.838Z,250
2016-10-02T11:55:28.506Z,270
2016-10-02T11:56:28.492Z,285
2016-10-02T11:57:28.534Z,320
2016-10-02T11:58:28.794Z,350
2016-10-02T11:59:28.776Z,410
2016-10-02T12:00:28.817Z,395
2016-10-02T12:01:28.437Z,415
2016-10-02T12:02:28.439Z,490
2016-10-02T12:03:28.422Z,1630
2016-10-02T12:04:28.717Z,810
2016-10-02T12:05:28.393Z,410
2016-10-02T12:06:28.387Z,365
2016-10-02T12:07:28.745Z,245
2016-10-02T12:08:28.374Z,165
2016-10-02T12:09:28.667Z,210
2016-10-02T12:10:28.964Z,265
2016-10-02T12:11:28.662Z,260
2016-10-02T12:12:28.325Z,210
2016-10-02T12:13:28.613Z,205
2016-10-02T12:14:28.310Z,230
2016-10-02T12:15:28.299Z,225
2016-10-02T12:16:28.292Z,230
2016-10-02T12:17:28.270Z,420
2016-10-02T12:18:28.588Z,205
2016-10-02T12:19:28.574Z,195
2016-10-02T12:20:28.562Z,305
2016-10-02T12:21:28.562Z,225
2016-10-02T12:22:28.554Z,200
2016-10-02T12:23:28.283Z,200
2016-10-02T12:24:28.529Z,225
2016-10-02T12:25:28.514Z,260
2016-10-02T12:26:28.209Z,275
2016-10-02T12:27:28.845Z,310
2016-10-02T12:28:28.796Z,275
2016-10-02T12:29:28.497Z,270
2016-10-02T12:30:28.497Z,260
2016-10-02T12:31:28.491Z,250
2016-10-02T12:32:28.465Z,210
2016-10-02T12:33:28.438Z,175
2016-10-02T12:34:28.115Z,180
2016-10-02T12:35:28.155Z,155
2016-10-02T12:36:28.089Z,150
2016-10-02T12:37:28.082Z,175
2016-10-02T12:38:28.114Z,230
2016-10-02T12:39:28.380Z,310
2016-10-02T12:40:28.045Z,425
2016-10-02T12:41:28.041Z,920
2016-10-02T12:42:28.030Z,425
2016-10-02T12:43:28.026Z,335
2016-10-02T12:44:28.058Z,280
2016-10-02T12:45:28.332Z,230
2016-10-02T12:46:27.981Z,195
2016-10-02T12:47:27.982Z,180
2016-10-02T12:48:27.970Z,150
2016-10-02T12:49:28.330Z,140
2016-10-02T12:50:28.272Z,140
2016-10-02T12:51:28.256Z,120
2016-10-02T12:52:27.923Z,85
2016-10-02T12:53:27.925Z,70
2016-10-02T12:54:28.158Z,60
2016-10-02T12:55:28.218Z,65
2016-10-02T12:56:27.889Z,70
2016-10-02T12:57:27.881Z,100
2016-10-02T12:58:27.872Z,305
2016-10-02T12:59:28.222Z,305
2016-10-02T13:00:27.861Z,345
2016-10-02T13:01:27.848Z,280
2016-10-02T13:02:27.819Z,225
2016-10-02T13:03:27.819Z,175
2016-10-02T13:04:27.852Z,155
2016-10-02T13:05:27.797Z,115
2016-10-02T13:06:27.794Z,90
2016-10-02T13:07:27.775Z,100
2016-10-02T13:08:28.382Z,165
2016-10-02T13:09:28.449Z,200
2016-10-02T13:10:27.758Z,210
2016-10-02T13:11:28.056Z,215
2016-10-02T13:12:28.052Z,210
2016-10-02T13:13:27.736Z,180
2016-10-02T13:14:28.070Z,160
2016-10-02T13:15:28.016Z,145
2016-10-02T13:16:27.674Z,125
2016-10-02T13:17:27.674Z,120
2016-10-02T13:18:27.977Z,110
2016-10-02T13:19:28.272Z,100
2016-10-02T13:20:27.644Z,75
2016-10-02T13:21:27.631Z,60
2016-10-02T13:22:27.621Z,50
2016-10-02T13:23:27.619Z,45
2016-10-02T13:24:27.602Z,40
2016-10-02T13:25:27.595Z,35
2016-10-02T13:26:27.584Z,35
2016-10-02T13:27:27.911Z,40
2016-10-02T13:28:27.561Z,75
2016-10-02T13:29:27.596Z,110
2016-10-02T13:30:27.849Z,140
2016-10-02T13:31:27.527Z,160
2016-10-02T13:32:28.147Z,180
2016-10-02T13:33:27.820Z,220
2016-10-02T13:34:27.818Z,280
2016-10-02T13:35:27.491Z,315
2016-10-02T13:36:27.785Z,360
2016-10-02T13:37:28.111Z,350
2016-10-02T13:38:27.654Z,360
2016-10-02T13:39:27.496Z,450
2016-10-02T13:40:27.427Z,1035
2016-10-02T13:41:28.080Z,1205
2016-10-02T13:42:27.434Z,1160
2016-10-02T13:43:27.646Z,1095
2016-10-02T13:44:28.027Z,885
2016-10-02T13:45:27.377Z,1045
2016-10-02T13:46:27.376Z,1055
2016-10-02T13:47:27.683Z,1080
2016-10-02T13:48:27.362Z,560
2016-10-02T13:49:27.352Z,960
2016-10-02T13:50:27.659Z,600
2016-10-02T13:51:27.343Z,255
2016-10-02T13:52:27.645Z,195
2016-10-02T13:53:27.317Z,160
2016-10-02T13:54:27.688Z,140
2016-10-02T13:55:27.632Z,120
2016-10-02T13:56:27.661Z,85
2016-10-02T13:57:27.955Z,75
2016-10-02T13:58:27.294Z,95
2016-10-02T13:59:27.299Z,90
2016-10-02T14:00:27.938Z,75
2016-10-02T14:01:27.604Z,65
2016-10-02T14:02:27.909Z,60
2016-10-02T14:03:28.447Z,55
2016-10-02T14:04:27.246Z,50
2016-10-02T14:05:27.289Z,45
2016-10-02T14:06:27.238Z,40
2016-10-02T14:07:27.963Z,35
2016-10-02T14:08:27.529Z,35
2016-10-02T14:09:27.202Z,35
2016-10-02T14:10:27.237Z,40
2016-10-02T14:11:27.184Z,45
2016-10-02T14:12:27.170Z,50
2016-10-02T14:13:27.485Z,50
2016-10-02T14:14:27.155Z,45
2016-10-02T14:15:27.144Z,40
2016-10-02T14:16:27.140Z,45
2016-10-02T14:17:27.142Z,50
2016-10-02T14:18:27.120Z,60